Espace membre
Imprimable
Challenges > Delhalle - Erpent, 16/02/2008, BEL - La Printanière
Liste des rapports > Delhalle - 15.75km - Classement à l'arrivée
Recherche: Page: [1]
57 Entrées
 
Visualisez vos photos fournies par Eventsfoto en cliquant sur la petite icone située en début de ligne!

Les réclamations ne sont plus acceptées, les résultats sont considérés comme définitifs.
RangNrNomAgeIOCLigueEquipeRéelTempsTkmMoy.ScrPtsLocalité
1.914FVAN HOOF Wella45BELLIER1:09:151:09:244:25 13.6286833BERLAAR
2.235FHOUBART Cecile41BELRONVAU1:13:351:13:434:41 12.82158737JODOIGNE
3.1841FFAVEAUX Patricia41BELARCH1:14:191:14:264:44 12.70170722CINEY
4.1881FBLAISE Christiane46BELARCH1:16:531:17:094:54 12.25232659ANTHEE
5.1989FDEMOULIN Brigitte48BELSMACJOGGPLUS1:17:291:17:394:56 12.17246645LUSTIN
6.1098FBUZIN Donatienne41BELARCH1:17:061:17:484:57 12.15256646HAN SUR LESSE
7.1219FVAUDOISEY Anne41BELRCBMYSTERE1:18:421:19:185:03 11.92300604BRUXELLES
8.366FLANSLOTS Viviane43BELAVN1:20:251:20:445:08 11.71325570MERKSPLAS
9.1078FMEESTERS Hilde47BELBAVBRUS ATL1:21:091:21:355:11 11.58344552BRUXELLES
10.1112FHANSSEN Bernadette44BELARCH1:22:301:23:245:18 11.33374522CINEY
11.2047FROGIERS Anne41BELKAPUCIJN1:23:311:24:205:22 11.21394500MOLLEM
12.379FMESTACH Cristine47BELFLEUFLEU ATHL1:24:281:24:395:23 11.16400486MARBAIS
13.2279FSTIENLET Pascale47BELRCNAMUR1:24:511:25:355:27 11.04423470CRUPET
14.2475FLEJEUNE Patricia46BELSMAC1:25:121:25:465:27 11.02428464
15.2063FFOSTER Christiane43BELFLEU ATHL1:25:471:25:585:28 10.99431455FARCIENNES
16.1432FSALENS Lia43BEL1:25:441:26:155:29 10.96439452WOLVERTEM
17.1427FMARION Paulette49BELARCH1:27:261:27:395:34 10.78473417CINEY
18.2050FVAN NIEUWENHOVEN Mar49BELANTILOB1:28:211:28:395:38 10.66493397OTTIGNIES
19.539FSECCI Doriane43BELACLO1:28:471:29:055:40 10.61502388MORLANWEZ
20.2487FDE ROUCK Benedicte41BEL1:29:051:29:555:43 10.51523375MERCHTEM
21.2044FPELTGEN Marie-Paule47BEL1:29:061:30:275:45 10.45532371EGHEZÉE
22.1243FHENRY Francoise44BEL1:30:041:30:455:46 10.41538357LA HULPE
23.2058FGILMONT Chantal49BELRACLOHAC1:30:511:31:185:48 10.35552342LA LOUVIÈRE
24.2261FMERTENS Patricia45BELTP VERT1:30:501:31:185:48 10.35553342HALLE
25.1280FKLEIN Marie-France49BELRTH1:30:521:31:435:50 10.30563337
26.2495FGOPPERT Anne43BEL1:31:331:32:065:51 10.26568327
27.1157FPIRET Florence41BELACLO1:31:581:32:155:52 10.24570321MANAGE
28.1612FD'AQUINO Graziella48BELUACRRTC1:32:231:33:165:56 10.13586309MONTIGNIES-SUR-SAMBRE
29.496FUBIETA Martine45BELFOUL PLAIS1:32:561:33:365:57 10.10594300VINALMONT
30.1700FPETERS Chantal45BELCELESTES1:33:031:34:045:59 10.05599296MALONNE
31.1275FPIROTTE Helene48BELHRC1:33:271:34:196:00 10.02602290ARLON
32.1076FVAN EERDEWEGH Christine40BEL1:34:001:34:216:00 10.02604283SCHEPDAAL
33.147FDE MOREAU Monique44BELARCH1:33:301:34:246:00 10.01606288HAVERSIN
34.773FDEMARCHE Francoise46BELARCHARCH1:34:301:34:446:01 9.98608276YVOIR
35.1066FPONTHIEU Roxane42BELFLEUFLEU ATHL1:36:351:36:476:09 9.76628243LIGNY
36.611FBOURMORCK Carinne41BELFLEUFLEU ATHL1:36:351:36:476:09 9.76629243AISEAU
37.2228FDIMITRIADIS Sevasti44BEL1:38:001:38:086:14 9.63646220FARCIENNES
38.1147FKEPENNE Carine47BEL1:37:121:38:106:14 9.63647228MALONNE
39.2414FHUBERTY Catherine41BEL1:37:151:38:136:15 9.62648228FLAWINNE
40.251FSOMMELETTE M.Christine49BELJCCS1:37:141:38:156:15 9.62649227GANSHOREN
41.1860FDEBILDE Anne-Francoise49BELRONVAU1:37:311:38:576:17 9.55656221PERWEZ
42.1618FFOULON Marie Paule49BELRCNAMUR1:38:491:39:466:21 9.47660205FLAWINNE
43.1703FREIP Christine45BEL1:38:591:39:566:21 9.46664202MARBEHAN
44.2325FGENGOUX Jacqueline48BELARCH1:39:241:40:086:22 9.44668196
45.2421FPIERARD Isabelle48BELARCHARCH1:39:231:40:086:22 9.44669195DINANT
46.2079FDEWILDE Magali44BELJOGGANS1:40:301:40:456:24 9.38678179MOLENBEEK ST JEAN
47.780FRENWART Godelieve45BELJC BAUDOUR1:40:271:41:256:27 9.32681179LESSINES
48.2255FLESOIL Danielle43BELARCH1:41:311:42:386:31 9.21692162CUSTINNE
49.1005FCARLIER Marie Paule47BELTORTUES1:42:381:42:596:33 9.18695150MEVERGNIES
50.2039FLUSCHER J. Ann46BEL1:43:301:44:246:38 9.05699139BRUXELLES
51.2323FDENIS Anne47BEL1:44:561:45:126:41 8.98706121
52.2301FBELLIS Viviane47BEL1:44:171:45:236:42 8.97709127BIERGES
53.300FADAM Francoise47BELHRC1:47:001:47:336:50 8.7971995CHENOIS
54.2355FHELIN Véronique47FRA1:46:371:47:366:50 8.7872098CAPPELLE-EN-PÉVÈLE
55.2292FCHAPELLE Carole41BEL1:47:421:48:466:55 8.6972585SOYE
56.826FLAMERANT Chantal44BELOXYGENE1:48:571:49:206:57 8.6472673BIERCEE
57.2293FSCHEYVEN Genevieve40BELRCNAMUR1:53:331:54:397:17 8.2474321BEEZ
DNF: abandon; DSQ: disqualifié; Vitesse en km/h
Page: [1]